createdAt,value
2022-08-03T00:00:30.000Z,78.60
2022-08-03T00:01:30.000Z,78.70
2022-08-03T00:02:30.000Z,78.50
2022-08-03T00:03:30.000Z,78.50
2022-08-03T00:04:30.000Z,78.74
2022-08-03T00:05:30.000Z,79.04
2022-08-03T00:06:30.000Z,79.24
2022-08-03T00:07:30.000Z,79.24
2022-08-03T00:08:30.000Z,79.35
2022-08-03T00:09:30.000Z,79.14
2022-08-03T00:10:30.000Z,79.14
2022-08-03T00:11:30.000Z,79.04
2022-08-03T00:12:30.000Z,79.04
2022-08-03T00:13:30.000Z,79.04
2022-08-03T00:14:30.000Z,78.84
2022-08-03T00:15:30.000Z,78.54
2022-08-03T00:16:30.000Z,78.34
2022-08-03T00:17:30.000Z,78.27
2022-08-03T00:18:30.000Z,78.03
2022-08-03T00:19:30.000Z,77.97
2022-08-03T00:20:30.000Z,77.94
2022-08-03T00:21:30.000Z,77.94
2022-08-03T00:22:30.000Z,77.73
2022-08-03T00:23:30.000Z,77.47
2022-08-03T00:24:30.000Z,77.27
2022-08-03T00:25:30.000Z,76.76
2022-08-03T00:26:30.000Z,76.36
2022-08-03T00:27:30.000Z,76.16
2022-08-03T00:28:30.000Z,76.26
2022-08-03T00:29:30.000Z,76.46
2022-08-03T00:30:30.000Z,76.76
2022-08-03T00:30:30.000Z,76.76
2022-08-03T00:31:30.000Z,76.76
2022-08-03T00:31:30.000Z,76.76
2022-08-03T00:32:30.000Z,76.67
2022-08-03T00:32:30.000Z,76.67
2022-08-03T00:33:30.000Z,76.67
2022-08-03T00:33:30.000Z,76.67
2022-08-03T00:34:30.000Z,76.46
2022-08-03T00:34:30.000Z,76.46
2022-08-03T00:35:30.000Z,76.36
2022-08-03T00:36:30.000Z,76.26
2022-08-03T00:37:30.000Z,76.06
2022-08-03T00:38:30.000Z,75.56
2022-08-03T00:39:30.000Z,75.15
2022-08-03T00:40:30.000Z,74.85
2022-08-03T00:41:30.000Z,74.85
2022-08-03T00:42:30.000Z,74.65
2022-08-03T00:43:30.000Z,74.65
2022-08-03T00:44:30.000Z,74.65
2022-08-03T00:45:30.000Z,74.85
2022-08-03T00:46:30.000Z,75.15
2022-08-03T00:47:30.000Z,75.56
2022-08-03T00:48:30.000Z,76.06
2022-08-03T00:49:30.000Z,76.46
2022-08-03T00:50:30.000Z,77.47
2022-08-03T00:51:30.000Z,78.17
2022-08-03T00:52:30.000Z,78.58
2022-08-03T00:53:30.000Z,78.67
2022-08-03T00:54:30.000Z,78.88
2022-08-03T00:55:30.000Z,78.98
2022-08-03T00:56:30.000Z,78.78
2022-08-03T00:57:30.000Z,78.58
2022-08-03T00:58:30.000Z,78.58
2022-08-03T00:59:30.000Z,78.58
2022-08-03T01:00:30.000Z,78.58
2022-08-03T01:01:30.000Z,78.38
2022-08-03T01:02:30.000Z,77.27
2022-08-03T01:03:30.000Z,77.11
2022-08-03T01:04:30.000Z,76.80
2022-08-03T01:05:30.000Z,76.60
2022-08-03T01:06:30.000Z,76.60
2022-08-03T01:07:30.000Z,76.60
2022-08-03T01:08:30.000Z,76.50
2022-08-03T01:09:30.000Z,75.79
2022-08-03T01:10:30.000Z,75.59
2022-08-03T01:11:30.000Z,75.49
2022-08-03T01:12:30.000Z,75.79
2022-08-03T01:13:30.000Z,75.99
2022-08-03T01:14:30.000Z,76.30
2022-08-03T01:15:30.000Z,76.50
2022-08-03T01:16:30.000Z,76.70
2022-08-03T01:17:30.000Z,76.90
2022-08-03T01:18:30.000Z,76.90
2022-08-03T01:19:30.000Z,75.63
2022-08-03T01:20:30.000Z,74.69
2022-08-03T01:21:30.000Z,74.62
2022-08-03T01:22:30.000Z,74.62
2022-08-03T01:23:30.000Z,74.42
2022-08-03T01:24:30.000Z,74.02
2022-08-03T01:25:30.000Z,74.12
2022-08-03T01:26:30.000Z,74.82
2022-08-03T01:27:30.000Z,74.93
2022-08-03T01:28:30.000Z,75.13
2022-08-03T01:29:30.000Z,75.43
2022-08-03T01:30:30.000Z,75.83
2022-08-03T01:31:30.000Z,76.03
2022-08-03T01:32:30.000Z,76.14
2022-08-03T01:33:30.000Z,75.63
2022-08-03T01:34:30.000Z,76.84
2022-08-03T01:35:29.000Z,77.55
2022-08-03T01:36:29.000Z,77.17
2022-08-03T01:37:29.000Z,77.08
2022-08-03T01:38:29.000Z,77.48
2022-08-03T01:39:29.000Z,77.68
2022-08-03T01:40:29.000Z,77.68
2022-08-03T01:41:29.000Z,77.98
2022-08-03T01:42:29.000Z,78.08
2022-08-03T01:43:29.000Z,78.08
2022-08-03T01:44:29.000Z,77.48
2022-08-03T01:45:29.000Z,77.78
2022-08-03T01:46:29.000Z,78.19
2022-08-03T01:47:29.000Z,78.69
2022-08-03T01:48:29.000Z,79.49
2022-08-03T01:49:29.000Z,79.33
2022-08-03T01:50:29.000Z,79.43
2022-08-03T01:51:29.000Z,79.23
2022-08-03T01:52:29.000Z,79.23
2022-08-03T01:53:29.000Z,78.72
2022-08-03T01:54:29.000Z,78.42
2022-08-03T01:55:29.000Z,78.42
2022-08-03T01:56:29.000Z,78.63
2022-08-03T01:57:29.000Z,78.63
2022-08-03T01:58:29.000Z,78.83
2022-08-03T01:59:29.000Z,78.22
2022-08-03T02:00:29.000Z,78.12
2022-08-03T02:01:29.000Z,78.42
2022-08-03T02:02:29.000Z,78.72
2022-08-03T02:03:29.000Z,78.92
2022-08-03T02:04:29.000Z,79.13
2022-08-03T02:05:29.000Z,78.83
2022-08-03T02:06:29.000Z,77.62
2022-08-03T02:07:29.000Z,77.92
2022-08-03T02:08:29.000Z,78.32
2022-08-03T02:09:29.000Z,78.72
2022-08-03T02:10:29.000Z,78.92
2022-08-03T02:11:29.000Z,78.83
2022-08-03T02:12:29.000Z,78.72
2022-08-03T02:13:29.000Z,78.72
2022-08-03T02:14:29.000Z,79.06
2022-08-03T02:15:29.000Z,79.16
2022-08-03T02:16:29.000Z,79.16
2022-08-03T02:17:29.000Z,79.27
2022-08-03T02:18:29.000Z,79.27
2022-08-03T02:19:29.000Z,79.06
2022-08-03T02:20:29.000Z,78.46
2022-08-03T02:21:29.000Z,77.55
2022-08-03T02:22:29.000Z,77.45
2022-08-03T02:23:29.000Z,77.35
2022-08-03T02:24:29.000Z,77.35
2022-08-03T02:25:29.000Z,76.75
2022-08-03T02:26:29.000Z,76.04
2022-08-03T02:27:29.000Z,76.04
2022-08-03T02:28:29.000Z,75.84
2022-08-03T02:29:29.000Z,76.54
2022-08-03T02:30:29.000Z,76.75
2022-08-03T02:31:29.000Z,76.75
2022-08-03T02:32:29.000Z,76.95
2022-08-03T02:33:29.000Z,76.48
2022-08-03T02:34:29.000Z,76.58
2022-08-03T02:35:29.000Z,76.58
2022-08-03T02:36:29.000Z,75.47
2022-08-03T02:37:29.000Z,75.87
2022-08-03T02:38:29.000Z,76.28
2022-08-03T02:39:29.000Z,76.78
2022-08-03T02:40:29.000Z,77.19
2022-08-03T02:41:29.000Z,77.49
2022-08-03T02:42:29.000Z,77.59
2022-08-03T02:43:29.000Z,77.69
2022-08-03T02:44:29.000Z,77.79
2022-08-03T02:45:29.000Z,77.79
2022-08-03T02:46:29.000Z,77.79
2022-08-03T02:47:29.000Z,78.09
2022-08-03T02:48:29.000Z,78.19
2022-08-03T02:49:29.000Z,78.30
2022-08-03T02:50:29.000Z,78.39
2022-08-03T02:50:29.000Z,78.39
2022-08-03T02:51:29.000Z,78.39
2022-08-03T02:51:29.000Z,78.39
2022-08-03T02:52:29.000Z,78.50
2022-08-03T02:52:29.000Z,78.50
2022-08-03T02:53:29.000Z,78.30
2022-08-03T02:53:29.000Z,78.30
2022-08-03T02:54:29.000Z,78.19
2022-08-03T02:54:29.000Z,78.19
2022-08-03T02:55:29.000Z,77.89
2022-08-03T02:56:29.000Z,77.69
2022-08-03T02:57:29.000Z,77.69
2022-08-03T02:58:29.000Z,77.69
2022-08-03T02:59:29.000Z,77.19
2022-08-03T03:00:29.000Z,76.98
2022-08-03T03:00:29.000Z,76.98
2022-08-03T03:01:29.000Z,76.92
2022-08-03T03:01:29.000Z,76.92
2022-08-03T03:02:29.000Z,76.68
2022-08-03T03:02:29.000Z,76.68
2022-08-03T03:03:29.000Z,76.18
2022-08-03T03:03:29.000Z,76.18
2022-08-03T03:04:29.000Z,76.31
2022-08-03T03:04:29.000Z,76.31
2022-08-03T03:05:29.000Z,76.62
2022-08-03T03:06:29.000Z,76.72
2022-08-03T03:07:29.000Z,76.92
2022-08-03T03:08:29.000Z,77.32
2022-08-03T03:09:29.000Z,77.32
2022-08-03T03:10:29.000Z,77.73
2022-08-03T03:11:28.000Z,78.03
2022-08-03T03:12:28.000Z,78.43
2022-08-03T03:13:28.000Z,79.00
2022-08-03T03:14:28.000Z,79.64
2022-08-03T03:15:28.000Z,80.05
2022-08-03T03:16:28.000Z,79.94
2022-08-03T03:17:28.000Z,80.25
2022-08-03T03:18:28.000Z,80.76
2022-08-03T03:19:28.000Z,80.55
2022-08-03T03:20:28.000Z,80.15
2022-08-03T03:21:28.000Z,79.94
2022-08-03T03:22:28.000Z,79.94
2022-08-03T03:23:28.000Z,79.94
2022-08-03T03:24:28.000Z,79.85
2022-08-03T03:25:28.000Z,79.85
2022-08-03T03:26:28.000Z,79.64
2022-08-03T03:27:28.000Z,79.34
2022-08-03T03:28:28.000Z,79.04
2022-08-03T03:29:28.000Z,78.23
2022-08-03T03:30:28.000Z,78.13
2022-08-03T03:31:28.000Z,78.33
2022-08-03T03:32:28.000Z,78.63
2022-08-03T03:33:28.000Z,78.88
2022-08-03T03:34:28.000Z,78.97
2022-08-03T03:35:28.000Z,79.14
2022-08-03T03:36:28.000Z,79.54
2022-08-03T03:37:28.000Z,79.38
2022-08-03T03:38:28.000Z,79.38
2022-08-03T03:39:28.000Z,79.58
2022-08-03T03:40:28.000Z,79.68
2022-08-03T03:41:28.000Z,79.48
2022-08-03T03:42:28.000Z,79.38
2022-08-03T03:43:28.000Z,79.38
2022-08-03T03:44:28.000Z,79.17
2022-08-03T03:45:28.000Z,78.97
2022-08-03T03:46:28.000Z,78.88
2022-08-03T03:47:28.000Z,78.57
2022-08-03T03:48:28.000Z,77.97
2022-08-03T03:49:28.000Z,77.97
2022-08-03T03:50:28.000Z,78.06
2022-08-03T03:50:28.000Z,78.06
2022-08-03T03:51:28.000Z,78.17
2022-08-03T03:51:28.000Z,78.17
2022-08-03T03:52:28.000Z,78.47
2022-08-03T03:52:28.000Z,78.47
2022-08-03T03:53:28.000Z,78.47
2022-08-03T03:53:28.000Z,78.47
2022-08-03T03:54:28.000Z,78.27
2022-08-03T03:54:28.000Z,78.27
2022-08-03T03:55:28.000Z,78.27
2022-08-03T03:56:28.000Z,78.17
2022-08-03T03:57:28.000Z,77.93
2022-08-03T03:58:28.000Z,78.03
2022-08-03T03:59:28.000Z,77.93
2022-08-03T04:00:28.000Z,77.93
2022-08-03T04:01:28.000Z,78.23
2022-08-03T04:02:28.000Z,78.70
2022-08-03T04:03:28.000Z,78.30
2022-08-03T04:04:28.000Z,78.39
2022-08-03T04:05:28.000Z,78.36
2022-08-03T04:06:28.000Z,78.66
2022-08-03T04:07:28.000Z,78.66
2022-08-03T04:08:28.000Z,79.16
2022-08-03T04:09:28.000Z,79.73
2022-08-03T04:10:28.000Z,80.24
2022-08-03T04:11:28.000Z,80.50
2022-08-03T04:12:28.000Z,80.50
2022-08-03T04:13:28.000Z,80.20
2022-08-03T04:14:28.000Z,79.86
2022-08-03T04:15:28.000Z,79.96
2022-08-03T04:16:28.000Z,79.96
2022-08-03T04:17:28.000Z,79.92
2022-08-03T04:18:28.000Z,79.72
2022-08-03T04:19:28.000Z,78.27
2022-08-03T04:20:28.000Z,78.58
2022-08-03T04:21:28.000Z,78.98
2022-08-03T04:22:28.000Z,79.48
2022-08-03T04:23:28.000Z,78.94
2022-08-03T04:24:28.000Z,78.84
2022-08-03T04:25:28.000Z,78.64
2022-08-03T04:26:28.000Z,78.20
2022-08-03T04:27:28.000Z,76.79
2022-08-03T04:28:28.000Z,76.69
2022-08-03T04:29:28.000Z,76.15
2022-08-03T04:30:28.000Z,75.25
2022-08-03T04:30:28.000Z,75.25
2022-08-03T04:31:28.000Z,74.95
2022-08-03T04:31:28.000Z,74.95
2022-08-03T04:32:28.000Z,74.55
2022-08-03T04:32:28.000Z,74.55
2022-08-03T04:33:28.000Z,74.21
2022-08-03T04:33:28.000Z,74.21
2022-08-03T04:34:28.000Z,73.61
2022-08-03T04:34:28.000Z,73.61
2022-08-03T04:35:28.000Z,74.51
2022-08-03T04:36:28.000Z,74.71
2022-08-03T04:37:28.000Z,74.61
2022-08-03T04:38:28.000Z,72.56
2022-08-03T04:39:28.000Z,74.07
2022-08-03T04:40:28.000Z,74.77
2022-08-03T04:41:28.000Z,72.37
2022-08-03T04:42:28.000Z,72.67
2022-08-03T04:43:28.000Z,73.44
2022-08-03T04:44:28.000Z,73.13
2022-08-03T04:45:28.000Z,73.13
2022-08-03T04:46:28.000Z,72.43
2022-08-03T04:47:28.000Z,71.90
2022-08-03T04:48:27.000Z,72.09
2022-08-03T04:49:27.000Z,71.09
2022-08-03T04:50:27.000Z,71.33
2022-08-03T04:51:27.000Z,72.03
2022-08-03T04:52:27.000Z,71.23
2022-08-03T04:53:27.000Z,71.66
2022-08-03T04:54:27.000Z,70.76
2022-08-03T04:55:27.000Z,71.16
2022-08-03T04:56:27.000Z,70.86
2022-08-03T04:57:27.000Z,70.09
2022-08-03T04:58:27.000Z,70.59
2022-08-03T04:59:27.000Z,71.56
2022-08-03T05:00:27.000Z,70.29
2022-08-03T05:00:27.000Z,70.29
2022-08-03T05:01:27.000Z,70.56
2022-08-03T05:01:27.000Z,70.56
2022-08-03T05:02:27.000Z,71.56
2022-08-03T05:02:27.000Z,71.56
2022-08-03T05:03:27.000Z,72.97
2022-08-03T05:03:27.000Z,72.97
2022-08-03T05:04:27.000Z,72.97
2022-08-03T05:04:27.000Z,72.97
2022-08-03T05:05:27.000Z,70.76
2022-08-03T05:06:27.000Z,71.77
2022-08-03T05:07:27.000Z,71.77
2022-08-03T05:08:27.000Z,71.66
2022-08-03T05:09:27.000Z,72.47
2022-08-03T05:10:27.000Z,74.37
2022-08-03T05:10:27.000Z,74.37
2022-08-03T05:11:27.000Z,72.47
2022-08-03T05:11:27.000Z,72.47
2022-08-03T05:12:27.000Z,71.97
2022-08-03T05:12:27.000Z,71.97
2022-08-03T05:13:27.000Z,72.13
2022-08-03T05:13:27.000Z,72.13
2022-08-03T05:14:27.000Z,71.93
2022-08-03T05:14:27.000Z,71.93
2022-08-03T05:15:27.000Z,71.53
2022-08-03T05:16:27.000Z,71.23
2022-08-03T05:17:27.000Z,71.33
2022-08-03T05:18:27.000Z,70.50
2022-08-03T05:19:27.000Z,69.99
2022-08-03T05:20:27.000Z,69.49
2022-08-03T05:21:27.000Z,69.09
2022-08-03T05:22:27.000Z,70.56
2022-08-03T05:23:27.000Z,70.06
2022-08-03T05:24:27.000Z,68.85
2022-08-03T05:25:27.000Z,69.23
2022-08-03T05:26:27.000Z,69.73
2022-08-03T05:27:27.000Z,68.32
2022-08-03T05:28:27.000Z,67.82
2022-08-03T05:29:27.000Z,67.59
2022-08-03T05:30:27.000Z,65.19
2022-08-03T05:31:27.000Z,64.39
2022-08-03T05:32:27.000Z,66.16
2022-08-03T05:33:27.000Z,65.16
2022-08-03T05:34:27.000Z,62.65
2022-08-03T05:41:44.000Z,63.82
2022-08-03T05:41:44.000Z,63.92
2022-08-03T05:42:44.000Z,61.92
2022-08-03T05:43:44.000Z,64.62
2022-08-03T05:44:44.000Z,63.53
2022-08-03T05:47:01.000Z,63.59
2022-08-03T05:47:01.000Z,62.99
2022-08-03T05:48:01.000Z,65.39
2022-08-03T05:49:01.000Z,63.29
2022-08-03T05:50:01.000Z,64.29
2022-08-03T05:51:01.000Z,64.79
2022-08-03T05:52:01.000Z,66.46
2022-08-03T05:53:01.000Z,64.16
2022-08-03T05:54:01.000Z,64.46
2022-08-03T05:55:01.000Z,65.06
2022-08-03T05:56:01.000Z,64.33
2022-08-03T05:57:01.000Z,63.93
2022-08-03T05:58:01.000Z,63.93
2022-08-03T05:59:01.000Z,64.33
2022-08-03T06:00:01.000Z,64.00
2022-08-03T06:01:01.000Z,64.20
2022-08-03T06:02:01.000Z,63.40
2022-08-03T06:03:01.000Z,62.97
2022-08-03T06:04:01.000Z,60.58
2022-08-03T06:05:01.000Z,62.27
2022-08-03T06:06:01.000Z,63.14
2022-08-03T06:07:01.000Z,62.34
2022-08-03T06:08:01.000Z,61.65
2022-08-03T06:09:01.000Z,60.92
2022-08-03T06:10:01.000Z,60.32
2022-08-03T06:11:01.000Z,60.39
2022-08-03T06:12:01.000Z,59.19
2022-08-03T06:13:01.000Z,58.76
2022-08-03T06:14:01.000Z,57.57
2022-08-03T06:15:01.000Z,57.54
2022-08-03T06:16:01.000Z,58.44
2022-08-03T06:17:01.000Z,57.35
2022-08-03T06:18:01.000Z,58.51
2022-08-03T06:19:01.000Z,57.82
2022-08-03T06:20:01.000Z,56.99
2022-08-03T06:21:01.000Z,56.59
2022-08-03T06:22:01.000Z,57.19
2022-08-03T06:23:01.000Z,56.57
2022-08-03T06:24:01.000Z,56.57
2022-08-03T06:25:01.000Z,55.27
2022-08-03T06:26:01.000Z,57.43
2022-08-03T06:27:01.000Z,54.16
2022-08-03T06:28:01.000Z,53.96
2022-08-03T06:29:01.000Z,55.15
2022-08-03T06:30:01.000Z,55.55
2022-08-03T06:31:01.000Z,54.63
2022-08-03T06:32:01.000Z,55.02
2022-08-03T06:33:01.000Z,54.13
2022-08-03T06:34:01.000Z,54.50
2022-08-03T06:35:01.000Z,54.10
2022-08-03T06:36:01.000Z,53.80
2022-08-03T06:37:01.000Z,52.42
2022-08-03T06:38:01.000Z,52.49
2022-08-03T06:39:01.000Z,51.62
2022-08-03T06:40:01.000Z,53.08
2022-08-03T06:41:01.000Z,52.29
2022-08-03T06:42:01.000Z,52.79
2022-08-03T06:43:01.000Z,51.20
2022-08-03T06:44:01.000Z,54.38
2022-08-03T06:45:01.000Z,51.89
2022-08-03T06:46:01.000Z,52.98
2022-08-03T06:47:01.000Z,52.98
2022-08-03T06:48:01.000Z,50.88
2022-08-03T06:49:01.000Z,52.66
2022-08-03T06:50:01.000Z,52.07
2022-08-03T06:51:01.000Z,52.94
2022-08-03T06:52:01.000Z,51.54
2022-08-03T06:53:01.000Z,50.76
2022-08-03T06:54:01.000Z,50.63
2022-08-03T06:55:01.000Z,50.04
2022-08-03T06:56:01.000Z,52.41
2022-08-03T06:57:01.000Z,50.60
2022-08-03T06:58:01.000Z,50.51
2022-08-03T06:59:01.000Z,49.81
2022-08-03T07:00:00.000Z,49.81
2022-08-03T07:01:00.000Z,52.17
2022-08-03T07:02:00.000Z,49.19
2022-08-03T07:03:00.000Z,48.90
2022-08-03T07:04:00.000Z,49.66
2022-08-03T07:05:00.000Z,48.11
2022-08-03T07:06:00.000Z,47.71
2022-08-03T07:07:00.000Z,47.81
2022-08-03T07:08:00.000Z,48.38
2022-08-03T07:09:00.000Z,47.29
2022-08-03T07:10:00.000Z,48.77
2022-08-03T08:16:57.000Z,37.43
2022-08-03T08:16:57.000Z,39.19
2022-08-03T08:17:57.000Z,37.63
2022-08-03T08:18:57.000Z,36.04
2022-08-03T08:19:57.000Z,37.63
2022-08-03T08:20:57.000Z,36.82
2022-08-03T08:21:57.000Z,39.17
2022-08-03T08:22:57.000Z,36.14
2022-08-03T08:23:57.000Z,37.00
2022-08-03T08:24:57.000Z,35.14
2022-08-03T13:52:09.000Z,22.25
2022-08-03T13:52:09.000Z,21.67
2022-08-03T13:53:09.000Z,23.68
2022-08-03T13:54:09.000Z,22.52
2022-08-03T13:55:09.000Z,23.57
2022-08-03T13:56:09.000Z,22.03
2022-08-03T13:57:09.000Z,22.13
2022-08-03T13:58:09.000Z,20.78
2022-08-03T13:59:09.000Z,21.17
2022-08-03T14:00:09.000Z,21.37
2022-08-03T14:01:09.000Z,21.55
2022-08-03T14:02:09.000Z,22.90
2022-08-03T14:03:09.000Z,22.60
2022-08-03T14:04:09.000Z,20.38
2022-08-03T14:05:09.000Z,20.56
2022-08-03T14:06:09.000Z,20.94
2022-08-03T14:07:09.000Z,21.22
2022-08-03T14:08:09.000Z,22.18
2022-08-03T14:09:09.000Z,20.73
2022-08-03T14:10:09.000Z,20.81
2022-08-03T14:11:09.000Z,19.95
2022-08-03T14:12:09.000Z,20.06
2022-08-03T14:13:09.000Z,20.64
2022-08-03T14:14:09.000Z,21.61
2022-08-03T14:15:09.000Z,20.55
2022-08-03T14:16:09.000Z,22.67
2022-08-03T14:17:09.000Z,22.19
2022-08-03T14:18:09.000Z,23.05
2022-08-03T14:29:48.000Z,20.43
2022-08-03T14:29:48.000Z,21.01
2022-08-03T14:30:48.000Z,20.43
2022-08-03T14:31:48.000Z,21.11
2022-08-03T14:32:47.000Z,20.35
2022-08-03T15:00:05.000Z,22.92
2022-08-03T15:00:05.000Z,23.80
2022-08-03T15:01:05.000Z,22.86
2022-08-03T15:02:05.000Z,23.35
2022-08-03T15:03:05.000Z,23.38
2022-08-03T15:04:05.000Z,23.19
2022-08-03T15:04:05.000Z,23.19
2022-08-03T15:05:05.000Z,23.49
2022-08-03T15:05:05.000Z,23.49
2022-08-03T15:06:05.000Z,23.50
2022-08-03T15:06:05.000Z,23.50
2022-08-03T15:07:05.000Z,24.28
2022-08-03T15:07:05.000Z,24.28
2022-08-03T15:08:05.000Z,24.49
2022-08-03T15:08:05.000Z,24.49
2022-08-03T15:09:05.000Z,24.68
2022-08-03T15:10:05.000Z,25.74
2022-08-03T15:11:05.000Z,26.23
2022-08-03T15:12:05.000Z,24.01
2022-08-03T15:13:05.000Z,23.52
2022-08-03T15:17:34.000Z,25.26
2022-08-03T15:17:34.000Z,24.39
2022-08-03T15:17:34.000Z,25.26
2022-08-03T15:17:34.000Z,24.39
2022-08-03T15:18:34.000Z,23.81
2022-08-03T15:18:34.000Z,23.81
2022-08-03T15:19:34.000Z,25.84
2022-08-03T15:19:34.000Z,25.84
2022-08-03T15:20:34.000Z,24.86
2022-08-03T15:20:34.000Z,24.86
2022-08-03T15:21:34.000Z,25.14
2022-08-03T15:22:34.000Z,24.26
2022-08-03T15:23:34.000Z,23.97
2022-08-03T15:24:34.000Z,24.05
2022-08-03T15:25:34.000Z,23.08
2022-08-03T15:26:34.000Z,24.69
2022-08-03T15:27:34.000Z,22.19
2022-08-03T15:28:34.000Z,22.85
2022-08-03T15:29:34.000Z,22.86
2022-08-03T15:30:34.000Z,23.15
2022-08-03T15:44:17.000Z,25.01
2022-08-03T15:44:17.000Z,26.37
2022-08-03T15:44:17.000Z,25.01
2022-08-03T15:44:17.000Z,26.37
2022-08-03T15:45:17.000Z,25.59
2022-08-03T15:45:17.000Z,25.59
2022-08-03T15:46:17.000Z,25.09
2022-08-03T15:47:17.000Z,25.58
2022-08-03T15:48:16.000Z,26.06
2022-08-03T15:49:16.000Z,25.87
2022-08-03T15:50:16.000Z,26.05
2022-08-03T15:51:16.000Z,25.67
2022-08-03T15:52:16.000Z,24.90
2022-08-03T15:53:16.000Z,25.67
2022-08-03T15:54:16.000Z,26.05
2022-08-03T15:55:16.000Z,27.21
2022-08-03T15:56:16.000Z,27.68
2022-08-03T15:57:16.000Z,26.32
2022-08-03T15:58:16.000Z,26.04
2022-08-03T15:59:16.000Z,25.46
2022-08-03T16:00:16.000Z,25.65
2022-08-03T16:01:16.000Z,24.78
2022-08-03T16:01:16.000Z,24.78
2022-08-03T16:02:16.000Z,24.68
2022-08-03T16:02:16.000Z,24.68
2022-08-03T16:03:16.000Z,24.68
2022-08-03T16:03:16.000Z,24.68
2022-08-03T16:04:16.000Z,24.29
2022-08-03T16:04:16.000Z,24.29
2022-08-03T16:05:16.000Z,24.87
2022-08-03T16:05:16.000Z,24.87
2022-08-03T16:06:16.000Z,24.49
2022-08-03T16:07:16.000Z,25.37
2022-08-03T16:08:16.000Z,25.47
2022-08-03T16:09:16.000Z,26.05
2022-08-03T16:10:16.000Z,26.63
2022-08-03T16:49:30.000Z,29.88
2022-08-03T16:49:30.000Z,28.42
2022-08-03T16:50:30.000Z,28.71
2022-08-03T16:51:30.000Z,30.76
2022-08-03T16:52:30.000Z,29.21
2022-08-03T16:52:30.000Z,29.21
2022-08-03T16:52:30.000Z,29.21
2022-08-03T16:53:30.000Z,29.02
2022-08-03T16:53:30.000Z,29.02
2022-08-03T16:53:30.000Z,29.02
2022-08-03T16:54:30.000Z,29.41
2022-08-03T16:54:30.000Z,29.41
2022-08-03T16:54:30.000Z,29.41
2022-08-03T16:55:29.000Z,28.92
2022-08-03T16:55:29.000Z,28.92
2022-08-03T16:55:29.000Z,28.92
2022-08-03T16:56:29.000Z,29.70
2022-08-03T16:56:29.000Z,29.70
2022-08-03T16:56:29.000Z,29.70
2022-08-03T16:57:29.000Z,29.71
2022-08-03T16:57:29.000Z,29.71
2022-08-03T16:58:29.000Z,29.61
2022-08-03T16:58:29.000Z,29.61
2022-08-03T16:59:29.000Z,29.42
2022-08-03T16:59:29.000Z,29.42
2022-08-03T17:00:29.000Z,30.98
2022-08-03T17:00:29.000Z,30.98
2022-08-03T17:01:29.000Z,29.71
2022-08-03T17:01:29.000Z,29.71
2022-08-03T17:02:29.000Z,30.10
2022-08-03T17:03:29.000Z,31.78
2022-08-03T17:04:29.000Z,29.24
2022-08-03T17:05:29.000Z,31.00
2022-08-03T17:06:29.000Z,31.20
2022-08-03T17:08:47.000Z,30.41
2022-08-03T17:08:47.000Z,30.12
2022-08-03T17:09:47.000Z,31.78
2022-08-03T17:10:47.000Z,31.51
2022-08-03T17:11:46.000Z,30.62
2022-08-03T17:12:46.000Z,30.72
2022-08-03T17:13:46.000Z,30.62
2022-08-03T17:14:46.000Z,30.23
2022-08-03T17:15:46.000Z,31.21
2022-08-03T17:16:46.000Z,32.68
2022-08-03T17:17:46.000Z,30.91
2022-08-03T17:18:46.000Z,30.35
2022-08-03T17:19:46.000Z,32.10
2022-08-03T17:20:46.000Z,31.32
2022-08-03T17:21:46.000Z,31.71
2022-08-03T17:22:46.000Z,32.30
2022-08-03T17:22:46.000Z,32.30
2022-08-03T17:23:46.000Z,31.62
2022-08-03T17:23:46.000Z,31.62
2022-08-03T17:24:46.000Z,31.23
2022-08-03T17:24:46.000Z,31.23
2022-08-03T17:25:46.000Z,31.52
2022-08-03T17:25:46.000Z,31.52
2022-08-03T17:26:46.000Z,33.10
2022-08-03T17:26:46.000Z,33.10
2022-08-03T17:27:46.000Z,32.71
2022-08-03T17:28:46.000Z,32.32
2022-08-03T17:29:46.000Z,32.22
2022-08-03T17:30:46.000Z,32.61
2022-08-03T17:31:46.000Z,32.32
2022-08-03T17:32:46.000Z,31.16
2022-08-03T17:32:46.000Z,31.16
2022-08-03T17:33:46.000Z,31.94
2022-08-03T17:33:46.000Z,31.94
2022-08-03T17:34:46.000Z,32.53
2022-08-03T17:34:46.000Z,32.53
2022-08-03T17:35:46.000Z,30.96
2022-08-03T17:35:46.000Z,30.96
2022-08-03T17:36:46.000Z,32.43
2022-08-03T17:36:46.000Z,32.43
2022-08-03T17:37:46.000Z,32.53
2022-08-03T17:38:46.000Z,32.94
2022-08-03T17:39:46.000Z,32.54
2022-08-03T17:40:46.000Z,33.53
2022-08-03T17:41:46.000Z,33.53
2022-08-03T17:42:46.000Z,33.04
2022-08-03T17:43:46.000Z,33.62
2022-08-03T17:44:46.000Z,33.04
2022-08-03T17:45:46.000Z,33.43
2022-08-03T17:46:46.000Z,33.53
2022-08-03T17:47:46.000Z,32.76
2022-08-03T17:48:46.000Z,32.86
2022-08-03T17:49:46.000Z,32.66
2022-08-03T17:50:46.000Z,33.44
2022-08-03T17:51:46.000Z,33.64
2022-08-03T17:52:46.000Z,34.72
2022-08-03T17:52:46.000Z,34.72
2022-08-03T17:53:46.000Z,35.21
2022-08-03T17:53:46.000Z,35.21
2022-08-03T17:54:46.000Z,34.83
2022-08-03T17:54:46.000Z,34.83
2022-08-03T17:55:46.000Z,35.03
2022-08-03T17:55:46.000Z,35.03
2022-08-03T17:56:46.000Z,33.65
2022-08-03T17:56:46.000Z,33.65
2022-08-03T17:57:46.000Z,33.46
2022-08-03T17:58:46.000Z,33.85
2022-08-03T17:59:46.000Z,33.17
2022-08-03T18:00:46.000Z,33.85
2022-08-03T18:01:46.000Z,34.54
2022-08-03T18:02:46.000Z,35.13
2022-08-03T18:02:46.000Z,35.13
2022-08-03T18:03:46.000Z,33.56
2022-08-03T18:03:46.000Z,33.56
2022-08-03T18:04:46.000Z,33.65
2022-08-03T18:04:46.000Z,33.65
2022-08-03T18:05:46.000Z,33.65
2022-08-03T18:05:46.000Z,33.65
2022-08-03T18:06:46.000Z,33.95
2022-08-03T18:06:46.000Z,33.95
2022-08-03T18:07:46.000Z,34.74
2022-08-03T18:08:46.000Z,35.62
2022-08-03T18:09:46.000Z,35.74
2022-08-03T18:10:46.000Z,35.24
2022-08-03T18:11:46.000Z,33.97
2022-08-03T18:12:46.000Z,34.95
2022-08-03T18:12:46.000Z,34.95
2022-08-03T18:12:46.000Z,34.95
2022-08-03T18:13:46.000Z,34.46
2022-08-03T18:13:46.000Z,34.46
2022-08-03T18:13:46.000Z,34.46
2022-08-03T18:14:46.000Z,33.28
2022-08-03T18:14:46.000Z,33.28
2022-08-03T18:14:46.000Z,33.28
2022-08-03T18:15:46.000Z,34.56
2022-08-03T18:15:46.000Z,34.56
2022-08-03T18:15:46.000Z,34.56
2022-08-03T18:16:46.000Z,33.69
2022-08-03T18:16:46.000Z,33.69
2022-08-03T18:16:46.000Z,33.69
2022-08-03T18:17:46.000Z,34.77
2022-08-03T18:17:46.000Z,34.77
2022-08-03T18:18:46.000Z,33.69
2022-08-03T18:18:46.000Z,33.69
2022-08-03T18:19:46.000Z,34.38
2022-08-03T18:19:46.000Z,34.38
2022-08-03T18:20:46.000Z,33.49
2022-08-03T18:20:46.000Z,33.49
2022-08-03T18:21:46.000Z,33.69
2022-08-03T18:21:46.000Z,33.69
2022-08-03T18:22:46.000Z,34.08
2022-08-03T18:23:46.000Z,34.28
2022-08-03T18:24:46.000Z,34.18
2022-08-03T18:25:46.000Z,33.49
2022-08-03T18:26:46.000Z,33.69
2022-08-03T18:32:59.000Z,33.61
2022-08-03T18:32:59.000Z,34.10
2022-08-03T18:32:59.000Z,33.61
2022-08-03T18:32:59.000Z,34.10
2022-08-03T18:33:59.000Z,35.08
2022-08-03T18:33:59.000Z,35.08
2022-08-03T18:34:59.000Z,34.89
2022-08-03T18:35:59.000Z,33.80
2022-08-03T18:36:59.000Z,34.30
2022-08-03T18:37:59.000Z,34.59
2022-08-03T18:38:59.000Z,34.69
2022-08-03T18:39:59.000Z,35.30
2022-08-03T18:39:59.000Z,35.30
2022-08-03T18:40:59.000Z,35.20
2022-08-03T18:40:59.000Z,35.20
2022-08-03T18:41:59.000Z,34.51
2022-08-03T18:41:59.000Z,34.51
2022-08-03T18:42:59.000Z,35.20
2022-08-03T18:42:59.000Z,35.20
2022-08-03T18:43:59.000Z,34.90
2022-08-03T18:43:59.000Z,34.90
2022-08-03T18:44:59.000Z,34.70
2022-08-03T18:45:59.000Z,34.63
2022-08-03T18:46:59.000Z,34.53
2022-08-03T18:47:59.000Z,35.31
2022-08-03T18:48:59.000Z,35.41
2022-08-03T18:49:59.000Z,35.02
2022-08-03T18:49:59.000Z,35.02
2022-08-03T18:50:59.000Z,35.31
2022-08-03T18:50:59.000Z,35.31
2022-08-03T18:51:59.000Z,35.21
2022-08-03T18:51:59.000Z,35.21
2022-08-03T18:52:59.000Z,34.92
2022-08-03T18:52:59.000Z,34.92
2022-08-03T18:53:59.000Z,35.61
2022-08-03T18:53:59.000Z,35.61
2022-08-03T18:54:59.000Z,36.00
2022-08-03T18:55:59.000Z,36.40
2022-08-03T18:56:59.000Z,36.30
2022-08-03T18:57:59.000Z,36.79
2022-08-03T18:58:59.000Z,36.59
2022-08-03T18:59:59.000Z,36.02
2022-08-03T19:00:59.000Z,35.82
2022-08-03T19:01:59.000Z,35.72
2022-08-03T19:02:59.000Z,36.02